sensor_id;sensor_type;location;lat;lon;timestamp;P1;durP1;ratioP1;P2;durP2;ratioP2
23496;SDS011;11925;48.122;11.560;2023-02-25T00:01:42;8.73;;;4.32;;
23496;SDS011;11925;48.122;11.560;2023-02-25T00:07:02;6.93;;;3.47;;
23496;SDS011;11925;48.122;11.560;2023-02-25T00:09:32;7.30;;;4.15;;
23496;SDS011;11925;48.122;11.560;2023-02-25T00:12:00;6.72;;;3.70;;
23496;SDS011;11925;48.122;11.560;2023-02-25T00:14:28;6.35;;;3.28;;
23496;SDS011;11925;48.122;11.560;2023-02-25T00:16:57;5.43;;;3.55;;
23496;SDS011;11925;48.122;11.560;2023-02-25T00:19:27;5.97;;;3.15;;
23496;SDS011;11925;48.122;11.560;2023-02-25T00:21:55;5.57;;;2.92;;
23496;SDS011;11925;48.122;11.560;2023-02-25T00:24:24;5.07;;;2.60;;
23496;SDS011;11925;48.122;11.560;2023-02-25T00:26:53;4.70;;;2.80;;
23496;SDS011;11925;48.122;11.560;2023-02-25T00:29:21;5.88;;;3.55;;
23496;SDS011;11925;48.122;11.560;2023-02-25T00:31:50;4.60;;;2.90;;
23496;SDS011;11925;48.122;11.560;2023-02-25T00:34:18;4.78;;;2.72;;
23496;SDS011;11925;48.122;11.560;2023-02-25T00:36:47;4.53;;;2.70;;
23496;SDS011;11925;48.122;11.560;2023-02-25T00:39:16;5.68;;;2.20;;
23496;SDS011;11925;48.122;11.560;2023-02-25T00:41:44;5.28;;;2.58;;
23496;SDS011;11925;48.122;11.560;2023-02-25T00:44:14;5.47;;;2.80;;
23496;SDS011;11925;48.122;11.560;2023-02-25T00:46:42;4.47;;;2.47;;
23496;SDS011;11925;48.122;11.560;2023-02-25T00:49:11;4.05;;;2.42;;
23496;SDS011;11925;48.122;11.560;2023-02-25T00:51:57;3.63;;;2.20;;
23496;SDS011;11925;48.122;11.560;2023-02-25T00:54:25;4.18;;;2.30;;
23496;SDS011;11925;48.122;11.560;2023-02-25T00:56:54;4.82;;;2.40;;
23496;SDS011;11925;48.122;11.560;2023-02-25T00:59:24;4.65;;;2.42;;
23496;SDS011;11925;48.122;11.560;2023-02-25T01:01:52;4.78;;;2.22;;
23496;SDS011;11925;48.122;11.560;2023-02-25T01:04:20;5.15;;;2.30;;
23496;SDS011;11925;48.122;11.560;2023-02-25T01:06:49;4.32;;;2.17;;
23496;SDS011;11925;48.122;11.560;2023-02-25T01:09:19;4.63;;;2.72;;
23496;SDS011;11925;48.122;11.560;2023-02-25T01:11:48;6.78;;;2.78;;
23496;SDS011;11925;48.122;11.560;2023-02-25T01:14:17;4.10;;;2.60;;
23496;SDS011;11925;48.122;11.560;2023-02-25T01:16:48;4.28;;;2.40;;
23496;SDS011;11925;48.122;11.560;2023-02-25T01:19:19;4.85;;;2.50;;
23496;SDS011;11925;48.122;11.560;2023-02-25T01:21:50;3.88;;;2.60;;
23496;SDS011;11925;48.122;11.560;2023-02-25T01:24:20;4.60;;;2.80;;
23496;SDS011;11925;48.122;11.560;2023-02-25T01:26:53;5.55;;;2.67;;
23496;SDS011;11925;48.122;11.560;2023-02-25T01:29:25;4.95;;;2.53;;
23496;SDS011;11925;48.122;11.560;2023-02-25T01:31:57;5.25;;;2.72;;
23496;SDS011;11925;48.122;11.560;2023-02-25T01:34:28;4.65;;;2.65;;
23496;SDS011;11925;48.122;11.560;2023-02-25T01:36:56;4.78;;;2.50;;
23496;SDS011;11925;48.122;11.560;2023-02-25T01:39:25;4.13;;;2.60;;
23496;SDS011;11925;48.122;11.560;2023-02-25T01:41:55;4.32;;;2.78;;
23496;SDS011;11925;48.122;11.560;2023-02-25T01:44:28;4.15;;;2.50;;
23496;SDS011;11925;48.122;11.560;2023-02-25T01:46:59;4.75;;;2.40;;
23496;SDS011;11925;48.122;11.560;2023-02-25T01:49:29;3.67;;;2.15;;
23496;SDS011;11925;48.122;11.560;2023-02-25T01:52:01;3.65;;;2.25;;
23496;SDS011;11925;48.122;11.560;2023-02-25T01:54:33;5.63;;;2.42;;
23496;SDS011;11925;48.122;11.560;2023-02-25T01:57:05;3.50;;;2.17;;
23496;SDS011;11925;48.122;11.560;2023-02-25T01:59:35;2.88;;;1.95;;
23496;SDS011;11925;48.122;11.560;2023-02-25T02:02:07;3.67;;;1.80;;
23496;SDS011;11925;48.122;11.560;2023-02-25T02:04:36;2.60;;;1.52;;
23496;SDS011;11925;48.122;11.560;2023-02-25T02:07:05;2.80;;;1.58;;
23496;SDS011;11925;48.122;11.560;2023-02-25T02:09:34;2.58;;;1.55;;
23496;SDS011;11925;48.122;11.560;2023-02-25T02:12:05;3.28;;;1.77;;
23496;SDS011;11925;48.122;11.560;2023-02-25T02:14:35;3.47;;;1.90;;
23496;SDS011;11925;48.122;11.560;2023-02-25T02:17:12;2.55;;;1.55;;
23496;SDS011;11925;48.122;11.560;2023-02-25T02:20:01;2.58;;;1.63;;
23496;SDS011;11925;48.122;11.560;2023-02-25T02:22:41;2.38;;;1.50;;
23496;SDS011;11925;48.122;11.560;2023-02-25T02:25:24;4.13;;;1.67;;
23496;SDS011;11925;48.122;11.560;2023-02-25T02:28:21;3.10;;;1.50;;
23496;SDS011;11925;48.122;11.560;2023-02-25T02:31:18;3.15;;;1.33;;
23496;SDS011;11925;48.122;11.560;2023-02-25T02:33:53;2.25;;;1.30;;
23496;SDS011;11925;48.122;11.560;2023-02-25T02:36:29;1.85;;;1.27;;
23496;SDS011;11925;48.122;11.560;2023-02-25T02:39:08;3.42;;;1.10;;
23496;SDS011;11925;48.122;11.560;2023-02-25T02:41:44;2.22;;;1.20;;
23496;SDS011;11925;48.122;11.560;2023-02-25T02:44:17;2.88;;;1.10;;
23496;SDS011;11925;48.122;11.560;2023-02-25T02:46:54;2.28;;;0.90;;
23496;SDS011;11925;48.122;11.560;2023-02-25T02:49:27;1.48;;;0.93;;
23496;SDS011;11925;48.122;11.560;2023-02-25T02:52:04;1.70;;;1.00;;
23496;SDS011;11925;48.122;11.560;2023-02-25T02:54:35;2.60;;;1.10;;
23496;SDS011;11925;48.122;11.560;2023-02-25T02:57:05;3.28;;;1.30;;
23496;SDS011;11925;48.122;11.560;2023-02-25T02:59:38;1.25;;;0.82;;
23496;SDS011;11925;48.122;11.560;2023-02-25T03:02:12;1.95;;;1.13;;
23496;SDS011;11925;48.122;11.560;2023-02-25T03:04:44;1.73;;;1.10;;
23496;SDS011;11925;48.122;11.560;2023-02-25T03:07:15;1.52;;;0.88;;
23496;SDS011;11925;48.122;11.560;2023-02-25T03:09:45;1.25;;;0.75;;
23496;SDS011;11925;48.122;11.560;2023-02-25T03:12:18;1.40;;;0.90;;
23496;SDS011;11925;48.122;11.560;2023-02-25T03:14:46;1.50;;;0.70;;
23496;SDS011;11925;48.122;11.560;2023-02-25T03:17:17;1.77;;;0.80;;
23496;SDS011;11925;48.122;11.560;2023-02-25T03:19:54;1.80;;;0.80;;
23496;SDS011;11925;48.122;11.560;2023-02-25T03:22:28;1.20;;;0.70;;
23496;SDS011;11925;48.122;11.560;2023-02-25T03:25:01;0.98;;;0.60;;
23496;SDS011;11925;48.122;11.560;2023-02-25T03:27:35;1.25;;;0.60;;
23496;SDS011;11925;48.122;11.560;2023-02-25T03:30:06;1.17;;;0.73;;
23496;SDS011;11925;48.122;11.560;2023-02-25T03:32:41;1.45;;;0.80;;
23496;SDS011;11925;48.122;11.560;2023-02-25T03:35:11;1.70;;;0.70;;
23496;SDS011;11925;48.122;11.560;2023-02-25T03:37:43;1.17;;;0.60;;
23496;SDS011;11925;48.122;11.560;2023-02-25T03:40:15;1.13;;;0.60;;
23496;SDS011;11925;48.122;11.560;2023-02-25T03:42:48;3.05;;;0.50;;
23496;SDS011;11925;48.122;11.560;2023-02-25T03:45:21;0.70;;;0.50;;
23496;SDS011;11925;48.122;11.560;2023-02-25T03:47:52;1.35;;;0.60;;
23496;SDS011;11925;48.122;11.560;2023-02-25T03:50:22;0.70;;;0.40;;
23496;SDS011;11925;48.122;11.560;2023-02-25T03:52:58;0.90;;;0.50;;
23496;SDS011;11925;48.122;11.560;2023-02-25T03:55:50;3.03;;;0.70;;
23496;SDS011;11925;48.122;11.560;2023-02-25T03:58:18;1.17;;;0.50;;
23496;SDS011;11925;48.122;11.560;2023-02-25T04:00:48;1.15;;;0.40;;
23496;SDS011;11925;48.122;11.560;2023-02-25T04:03:24;0.68;;;0.45;;
23496;SDS011;11925;48.122;11.560;2023-02-25T04:05:53;1.08;;;0.60;;
23496;SDS011;11925;48.122;11.560;2023-02-25T04:08:21;1.92;;;0.60;;
23496;SDS011;11925;48.122;11.560;2023-02-25T04:10:49;1.98;;;0.60;;
23496;SDS011;11925;48.122;11.560;2023-02-25T04:13:19;2.38;;;0.80;;
23496;SDS011;11925;48.122;11.560;2023-02-25T04:15:48;1.02;;;0.50;;
23496;SDS011;11925;48.122;11.560;2023-02-25T04:18:18;1.08;;;0.50;;
23496;SDS011;11925;48.122;11.560;2023-02-25T04:20:47;1.42;;;0.57;;
23496;SDS011;11925;48.122;11.560;2023-02-25T04:23:16;1.98;;;0.60;;
23496;SDS011;11925;48.122;11.560;2023-02-25T04:25:44;2.85;;;0.75;;
23496;SDS011;11925;48.122;11.560;2023-02-25T04:28:12;1.13;;;0.70;;
23496;SDS011;11925;48.122;11.560;2023-02-25T04:30:40;1.65;;;0.70;;
23496;SDS011;11925;48.122;11.560;2023-02-25T04:33:09;1.27;;;0.80;;
23496;SDS011;11925;48.122;11.560;2023-02-25T04:35:38;1.88;;;0.90;;
23496;SDS011;11925;48.122;11.560;2023-02-25T04:38:07;2.45;;;1.08;;
23496;SDS011;11925;48.122;11.560;2023-02-25T04:40:36;1.75;;;1.20;;
23496;SDS011;11925;48.122;11.560;2023-02-25T04:43:04;1.58;;;1.05;;
23496;SDS011;11925;48.122;11.560;2023-02-25T04:45:35;2.90;;;1.20;;
23496;SDS011;11925;48.122;11.560;2023-02-25T04:48:03;1.23;;;1.00;;
23496;SDS011;11925;48.122;11.560;2023-02-25T04:50:32;2.08;;;1.33;;
23496;SDS011;11925;48.122;11.560;2023-02-25T04:53:01;2.08;;;1.27;;
23496;SDS011;11925;48.122;11.560;2023-02-25T04:55:30;3.35;;;1.30;;
23496;SDS011;11925;48.122;11.560;2023-02-25T04:57:59;2.10;;;1.10;;
23496;SDS011;11925;48.122;11.560;2023-02-25T05:00:27;1.77;;;1.05;;
23496;SDS011;11925;48.122;11.560;2023-02-25T05:02:55;2.65;;;1.17;;
23496;SDS011;11925;48.122;11.560;2023-02-25T05:05:24;2.75;;;1.27;;
23496;SDS011;11925;48.122;11.560;2023-02-25T05:07:52;3.25;;;1.77;;
23496;SDS011;11925;48.122;11.560;2023-02-25T05:10:20;2.58;;;1.30;;
23496;SDS011;11925;48.122;11.560;2023-02-25T05:12:50;2.28;;;1.50;;
23496;SDS011;11925;48.122;11.560;2023-02-25T05:15:18;4.35;;;1.85;;
23496;SDS011;11925;48.122;11.560;2023-02-25T05:17:47;2.88;;;1.88;;
23496;SDS011;11925;48.122;11.560;2023-02-25T05:20:15;3.10;;;1.80;;
23496;SDS011;11925;48.122;11.560;2023-02-25T05:22:44;2.85;;;2.15;;
23496;SDS011;11925;48.122;11.560;2023-02-25T05:25:12;3.28;;;2.17;;
23496;SDS011;11925;48.122;11.560;2023-02-25T05:27:41;2.40;;;1.80;;
23496;SDS011;11925;48.122;11.560;2023-02-25T05:30:11;3.58;;;2.42;;
23496;SDS011;11925;48.122;11.560;2023-02-25T05:32:40;3.35;;;2.53;;
23496;SDS011;11925;48.122;11.560;2023-02-25T05:35:09;4.90;;;3.03;;
23496;SDS011;11925;48.122;11.560;2023-02-25T05:37:37;4.55;;;2.88;;
23496;SDS011;11925;48.122;11.560;2023-02-25T05:40:06;4.53;;;2.90;;
23496;SDS011;11925;48.122;11.560;2023-02-25T05:42:35;4.65;;;2.67;;
23496;SDS011;11925;48.122;11.560;2023-02-25T05:45:05;4.13;;;2.78;;
23496;SDS011;11925;48.122;11.560;2023-02-25T05:47:35;4.55;;;3.17;;
23496;SDS011;11925;48.122;11.560;2023-02-25T05:50:04;4.07;;;2.80;;
23496;SDS011;11925;48.122;11.560;2023-02-25T05:52:32;4.72;;;2.83;;
23496;SDS011;11925;48.122;11.560;2023-02-25T05:55:01;4.47;;;3.20;;
23496;SDS011;11925;48.122;11.560;2023-02-25T05:57:29;5.20;;;3.38;;
23496;SDS011;11925;48.122;11.560;2023-02-25T05:59:58;6.18;;;3.42;;
23496;SDS011;11925;48.122;11.560;2023-02-25T06:02:26;5.05;;;3.20;;
23496;SDS011;11925;48.122;11.560;2023-02-25T06:04:56;4.60;;;3.10;;
23496;SDS011;11925;48.122;11.560;2023-02-25T06:07:27;4.40;;;3.10;;
23496;SDS011;11925;48.122;11.560;2023-02-25T06:09:56;4.85;;;3.33;;
23496;SDS011;11925;48.122;11.560;2023-02-25T06:12:27;4.53;;;3.13;;
23496;SDS011;11925;48.122;11.560;2023-02-25T06:14:56;4.80;;;3.25;;
23496;SDS011;11925;48.122;11.560;2023-02-25T06:17:24;4.93;;;3.30;;
23496;SDS011;11925;48.122;11.560;2023-02-25T06:19:52;4.47;;;3.30;;
23496;SDS011;11925;48.122;11.560;2023-02-25T06:22:23;5.30;;;3.70;;
23496;SDS011;11925;48.122;11.560;2023-02-25T06:24:51;5.50;;;3.60;;
23496;SDS011;11925;48.122;11.560;2023-02-25T06:27:19;6.43;;;4.05;;
23496;SDS011;11925;48.122;11.560;2023-02-25T06:29:48;5.50;;;3.47;;
23496;SDS011;11925;48.122;11.560;2023-02-25T06:32:16;6.90;;;3.92;;
23496;SDS011;11925;48.122;11.560;2023-02-25T06:34:45;5.93;;;3.80;;
23496;SDS011;11925;48.122;11.560;2023-02-25T06:37:14;9.23;;;4.18;;
23496;SDS011;11925;48.122;11.560;2023-02-25T06:39:43;5.60;;;3.83;;
23496;SDS011;11925;48.122;11.560;2023-02-25T06:42:12;6.00;;;3.65;;
23496;SDS011;11925;48.122;11.560;2023-02-25T06:44:40;6.82;;;4.38;;
23496;SDS011;11925;48.122;11.560;2023-02-25T06:47:08;5.72;;;4.05;;
23496;SDS011;11925;48.122;11.560;2023-02-25T06:49:37;6.30;;;3.88;;
23496;SDS011;11925;48.122;11.560;2023-02-25T06:52:05;6.70;;;3.85;;
23496;SDS011;11925;48.122;11.560;2023-02-25T06:54:34;6.15;;;4.25;;
23496;SDS011;11925;48.122;11.560;2023-02-25T06:57:03;5.88;;;3.78;;
23496;SDS011;11925;48.122;11.560;2023-02-25T06:59:31;6.72;;;4.55;;
23496;SDS011;11925;48.122;11.560;2023-02-25T07:02:01;5.88;;;4.30;;
23496;SDS011;11925;48.122;11.560;2023-02-25T07:04:30;6.57;;;4.60;;
23496;SDS011;11925;48.122;11.560;2023-02-25T07:06:58;6.63;;;4.85;;
23496;SDS011;11925;48.122;11.560;2023-02-25T07:09:26;8.85;;;4.85;;
23496;SDS011;11925;48.122;11.560;2023-02-25T07:11:54;6.68;;;4.13;;
23496;SDS011;11925;48.122;11.560;2023-02-25T07:14:24;7.20;;;4.45;;
23496;SDS011;11925;48.122;11.560;2023-02-25T07:16:52;8.25;;;4.35;;
23496;SDS011;11925;48.122;11.560;2023-02-25T07:19:21;7.38;;;4.38;;
23496;SDS011;11925;48.122;11.560;2023-02-25T07:21:49;6.60;;;4.30;;
23496;SDS011;11925;48.122;11.560;2023-02-25T07:24:17;7.28;;;4.50;;
23496;SDS011;11925;48.122;11.560;2023-02-25T07:26:46;5.57;;;4.13;;
23496;SDS011;11925;48.122;11.560;2023-02-25T07:29:14;6.63;;;4.45;;
23496;SDS011;11925;48.122;11.560;2023-02-25T07:31:43;8.93;;;4.40;;
23496;SDS011;11925;48.122;11.560;2023-02-25T07:34:12;7.80;;;4.32;;
23496;SDS011;11925;48.122;11.560;2023-02-25T07:36:41;6.82;;;4.43;;
23496;SDS011;11925;48.122;11.560;2023-02-25T07:39:10;9.10;;;4.25;;
23496;SDS011;11925;48.122;11.560;2023-02-25T07:41:38;7.13;;;4.30;;
23496;SDS011;11925;48.122;11.560;2023-02-25T07:44:10;6.68;;;4.65;;
23496;SDS011;11925;48.122;11.560;2023-02-25T07:46:38;8.63;;;4.53;;
23496;SDS011;11925;48.122;11.560;2023-02-25T07:49:08;8.40;;;5.22;;
23496;SDS011;11925;48.122;11.560;2023-02-25T07:51:36;10.18;;;4.75;;
23496;SDS011;11925;48.122;11.560;2023-02-25T07:54:05;10.18;;;5.15;;
23496;SDS011;11925;48.122;11.560;2023-02-25T07:56:33;7.47;;;4.63;;
23496;SDS011;11925;48.122;11.560;2023-02-25T07:59:01;7.97;;;4.82;;
23496;SDS011;11925;48.122;11.560;2023-02-25T08:01:31;6.15;;;4.65;;
23496;SDS011;11925;48.122;11.560;2023-02-25T08:04:01;8.20;;;4.55;;
23496;SDS011;11925;48.122;11.560;2023-02-25T08:06:32;6.40;;;4.70;;
23496;SDS011;11925;48.122;11.560;2023-02-25T08:09:03;8.73;;;4.82;;
23496;SDS011;11925;48.122;11.560;2023-02-25T08:11:32;9.32;;;4.80;;
23496;SDS011;11925;48.122;11.560;2023-02-25T08:14:00;8.30;;;4.60;;
23496;SDS011;11925;48.122;11.560;2023-02-25T08:16:30;9.48;;;4.25;;
23496;SDS011;11925;48.122;11.560;2023-02-25T08:18:59;5.85;;;4.10;;
23496;SDS011;11925;48.122;11.560;2023-02-25T08:21:29;6.15;;;3.90;;
23496;SDS011;11925;48.122;11.560;2023-02-25T08:23:59;7.10;;;4.18;;
23496;SDS011;11925;48.122;11.560;2023-02-25T08:26:27;7.10;;;3.72;;
23496;SDS011;11925;48.122;11.560;2023-02-25T08:28:55;7.70;;;3.90;;
23496;SDS011;11925;48.122;11.560;2023-02-25T08:31:24;6.10;;;3.67;;
23496;SDS011;11925;48.122;11.560;2023-02-25T08:33:54;7.45;;;3.70;;
23496;SDS011;11925;48.122;11.560;2023-02-25T08:36:25;8.40;;;3.63;;
23496;SDS011;11925;48.122;11.560;2023-02-25T08:38:56;7.05;;;3.78;;
23496;SDS011;11925;48.122;11.560;2023-02-25T08:41:27;7.28;;;3.35;;
23496;SDS011;11925;48.122;11.560;2023-02-25T08:43:56;4.85;;;3.00;;
23496;SDS011;11925;48.122;11.560;2023-02-25T08:46:30;7.57;;;3.25;;
23496;SDS011;11925;48.122;11.560;2023-02-25T08:48:59;7.60;;;3.13;;
23496;SDS011;11925;48.122;11.560;2023-02-25T08:51:28;8.23;;;3.67;;
23496;SDS011;11925;48.122;11.560;2023-02-25T08:54:01;6.75;;;3.22;;
23496;SDS011;11925;48.122;11.560;2023-02-25T08:56:32;6.47;;;3.55;;
23496;SDS011;11925;48.122;11.560;2023-02-25T08:59:00;6.68;;;3.65;;
23496;SDS011;11925;48.122;11.560;2023-02-25T09:01:29;5.18;;;2.97;;
23496;SDS011;11925;48.122;11.560;2023-02-25T09:04:10;7.63;;;3.50;;
23496;SDS011;11925;48.122;11.560;2023-02-25T09:06:39;7.22;;;4.00;;
23496;SDS011;11925;48.122;11.560;2023-02-25T09:09:08;7.55;;;3.58;;
23496;SDS011;11925;48.122;11.560;2023-02-25T09:11:40;5.43;;;3.53;;
23496;SDS011;11925;48.122;11.560;2023-02-25T09:14:08;8.00;;;3.33;;
23496;SDS011;11925;48.122;11.560;2023-02-25T09:16:37;5.18;;;3.20;;
23496;SDS011;11925;48.122;11.560;2023-02-25T09:19:06;6.20;;;2.65;;
23496;SDS011;11925;48.122;11.560;2023-02-25T09:21:36;7.80;;;2.88;;
23496;SDS011;11925;48.122;11.560;2023-02-25T09:24:06;5.50;;;2.80;;
23496;SDS011;11925;48.122;11.560;2023-02-25T09:26:35;5.38;;;2.45;;
23496;SDS011;11925;48.122;11.560;2023-02-25T09:29:05;6.68;;;2.78;;
23496;SDS011;11925;48.122;11.560;2023-02-25T09:31:34;3.90;;;2.22;;
23496;SDS011;11925;48.122;11.560;2023-02-25T09:34:04;4.50;;;2.05;;
23496;SDS011;11925;48.122;11.560;2023-02-25T09:36:34;3.58;;;2.08;;
23496;SDS011;11925;48.122;11.560;2023-02-25T09:39:02;9.35;;;2.20;;
23496;SDS011;11925;48.122;11.560;2023-02-25T09:41:38;6.35;;;1.85;;
23496;SDS011;11925;48.122;11.560;2023-02-25T09:44:14;4.15;;;2.35;;
23496;SDS011;11925;48.122;11.560;2023-02-25T09:46:48;5.35;;;2.10;;
23496;SDS011;11925;48.122;11.560;2023-02-25T09:49:20;7.80;;;1.80;;
23496;SDS011;11925;48.122;11.560;2023-02-25T09:51:56;2.90;;;1.50;;
23496;SDS011;11925;48.122;11.560;2023-02-25T09:54:29;3.95;;;1.60;;
23496;SDS011;11925;48.122;11.560;2023-02-25T09:57:02;5.95;;;2.20;;
23496;SDS011;11925;48.122;11.560;2023-02-25T09:59:33;6.68;;;2.47;;
23496;SDS011;11925;48.122;11.560;2023-02-25T10:02:05;4.43;;;1.85;;
23496;SDS011;11925;48.122;11.560;2023-02-25T10:04:50;6.10;;;2.60;;
23496;SDS011;11925;48.122;11.560;2023-02-25T10:07:32;10.15;;;2.42;;
23496;SDS011;11925;48.122;11.560;2023-02-25T10:10:04;7.35;;;2.13;;
23496;SDS011;11925;48.122;11.560;2023-02-25T10:12:44;4.78;;;2.60;;
23496;SDS011;11925;48.122;11.560;2023-02-25T10:15:24;5.60;;;1.85;;
23496;SDS011;11925;48.122;11.560;2023-02-25T10:18:05;4.20;;;1.73;;
23496;SDS011;11925;48.122;11.560;2023-02-25T10:20:51;8.95;;;3.60;;
23496;SDS011;11925;48.122;11.560;2023-02-25T10:23:40;5.10;;;1.90;;
23496;SDS011;11925;48.122;11.560;2023-02-25T10:26:18;4.88;;;1.88;;
23496;SDS011;11925;48.122;11.560;2023-02-25T10:28:51;7.38;;;1.70;;
23496;SDS011;11925;48.122;11.560;2023-02-25T10:31:24;3.63;;;1.42;;
23496;SDS011;11925;48.122;11.560;2023-02-25T10:33:53;7.03;;;1.53;;
23496;SDS011;11925;48.122;11.560;2023-02-25T10:36:24;4.55;;;1.50;;
23496;SDS011;11925;48.122;11.560;2023-02-25T10:38:57;4.30;;;1.52;;
23496;SDS011;11925;48.122;11.560;2023-02-25T10:41:25;5.63;;;1.90;;
23496;SDS011;11925;48.122;11.560;2023-02-25T10:43:55;4.95;;;1.70;;
23496;SDS011;11925;48.122;11.560;2023-02-25T10:46:28;2.63;;;1.23;;
23496;SDS011;11925;48.122;11.560;2023-02-25T10:49:02;4.32;;;1.30;;
23496;SDS011;11925;48.122;11.560;2023-02-25T10:52:00;3.42;;;1.42;;
23496;SDS011;11925;48.122;11.560;2023-02-25T10:54:31;3.38;;;1.20;;
23496;SDS011;11925;48.122;11.560;2023-02-25T10:57:01;3.63;;;1.23;;
23496;SDS011;11925;48.122;11.560;2023-02-25T10:59:36;4.25;;;1.55;;
23496;SDS011;11925;48.122;11.560;2023-02-25T11:02:17;2.83;;;1.30;;
23496;SDS011;11925;48.122;11.560;2023-02-25T11:04:49;4.18;;;1.42;;
23496;SDS011;11925;48.122;11.560;2023-02-25T11:07:23;2.60;;;1.55;;
23496;SDS011;11925;48.122;11.560;2023-02-25T11:10:07;2.63;;;1.30;;
23496;SDS011;11925;48.122;11.560;2023-02-25T11:12:41;3.85;;;1.38;;
23496;SDS011;11925;48.122;11.560;2023-02-25T11:15:17;4.75;;;1.35;;
23496;SDS011;11925;48.122;11.560;2023-02-25T11:18:16;4.20;;;1.50;;
23496;SDS011;11925;48.122;11.560;2023-02-25T11:20:48;3.33;;;1.48;;
23496;SDS011;11925;48.122;11.560;2023-02-25T11:23:20;5.53;;;1.35;;
23496;SDS011;11925;48.122;11.560;2023-02-25T11:25:53;5.43;;;1.50;;
23496;SDS011;11925;48.122;11.560;2023-02-25T11:28:25;6.88;;;1.60;;
23496;SDS011;11925;48.122;11.560;2023-02-25T11:31:03;3.40;;;1.20;;
23496;SDS011;11925;48.122;11.560;2023-02-25T11:33:37;5.15;;;1.48;;
23496;SDS011;11925;48.122;11.560;2023-02-25T11:36:09;4.30;;;1.20;;
23496;SDS011;11925;48.122;11.560;2023-02-25T11:38:38;4.18;;;1.33;;
23496;SDS011;11925;48.122;11.560;2023-02-25T11:41:19;3.97;;;1.67;;
23496;SDS011;11925;48.122;11.560;2023-02-25T11:43:49;2.60;;;1.08;;
23496;SDS011;11925;48.122;11.560;2023-02-25T11:46:20;3.42;;;1.10;;
23496;SDS011;11925;48.122;11.560;2023-02-25T11:48:54;4.03;;;1.20;;
23496;SDS011;11925;48.122;11.560;2023-02-25T11:51:27;2.15;;;0.82;;
23496;SDS011;11925;48.122;11.560;2023-02-25T11:56:31;3.88;;;1.15;;
23496;SDS011;11925;48.122;11.560;2023-02-25T11:59:05;5.13;;;0.82;;
23496;SDS011;11925;48.122;11.560;2023-02-25T12:01:55;1.90;;;0.73;;
23496;SDS011;11925;48.122;11.560;2023-02-25T12:04:54;3.67;;;1.00;;
23496;SDS011;11925;48.122;11.560;2023-02-25T12:07:49;2.92;;;0.88;;
23496;SDS011;11925;48.122;11.560;2023-02-25T12:14:20;2.25;;;0.80;;
23496;SDS011;11925;48.122;11.560;2023-02-25T12:20:56;3.50;;;1.00;;
23496;SDS011;11925;48.122;11.560;2023-02-25T12:23:51;2.88;;;0.90;;
23496;SDS011;11925;48.122;11.560;2023-02-25T12:26:48;4.47;;;0.88;;
23496;SDS011;11925;48.122;11.560;2023-02-25T12:29:40;3.05;;;1.00;;
23496;SDS011;11925;48.122;11.560;2023-02-25T12:32:40;4.65;;;1.00;;
23496;SDS011;11925;48.122;11.560;2023-02-25T12:35:23;1.52;;;0.80;;
23496;SDS011;11925;48.122;11.560;2023-02-25T12:41:22;3.10;;;0.90;;
23496;SDS011;11925;48.122;11.560;2023-02-25T12:44:04;3.17;;;1.20;;
23496;SDS011;11925;48.122;11.560;2023-02-25T12:47:01;3.15;;;1.00;;
23496;SDS011;11925;48.122;11.560;2023-02-25T12:49:53;2.60;;;0.90;;
23496;SDS011;11925;48.122;11.560;2023-02-25T12:52:44;2.28;;;0.70;;
23496;SDS011;11925;48.122;11.560;2023-02-25T12:55:39;3.80;;;1.10;;
23496;SDS011;11925;48.122;11.560;2023-02-25T13:01:16;1.63;;;0.70;;
23496;SDS011;11925;48.122;11.560;2023-02-25T13:04:02;4.47;;;0.82;;
23496;SDS011;11925;48.122;11.560;2023-02-25T13:06:49;2.63;;;0.80;;
23496;SDS011;11925;48.122;11.560;2023-02-25T13:09:49;5.07;;;0.80;;
23496;SDS011;11925;48.122;11.560;2023-02-25T13:12:37;1.63;;;1.00;;
23496;SDS011;11925;48.122;11.560;2023-02-25T13:15:27;2.92;;;1.17;;
23496;SDS011;11925;48.122;11.560;2023-02-25T13:18:13;3.30;;;0.70;;
23496;SDS011;11925;48.122;11.560;2023-02-25T13:21:00;1.67;;;0.57;;
23496;SDS011;11925;48.122;11.560;2023-02-25T13:24:02;3.83;;;0.95;;
23496;SDS011;11925;48.122;11.560;2023-02-25T13:30:12;1.52;;;0.70;;
23496;SDS011;11925;48.122;11.560;2023-02-25T13:32:55;2.88;;;0.70;;
23496;SDS011;11925;48.122;11.560;2023-02-25T13:35:34;1.83;;;0.65;;
23496;SDS011;11925;48.122;11.560;2023-02-25T13:41:04;4.78;;;0.70;;
23496;SDS011;11925;48.122;11.560;2023-02-25T13:47:11;2.95;;;1.00;;
23496;SDS011;11925;48.122;11.560;2023-02-25T13:53:06;2.10;;;0.85;;
23496;SDS011;11925;48.122;11.560;2023-02-25T13:55:59;3.25;;;1.17;;
23496;SDS011;11925;48.122;11.560;2023-02-25T13:58:43;3.72;;;1.10;;
23496;SDS011;11925;48.122;11.560;2023-02-25T14:01:27;5.57;;;1.13;;
23496;SDS011;11925;48.122;11.560;2023-02-25T14:04:18;2.22;;;0.93;;
23496;SDS011;11925;48.122;11.560;2023-02-25T14:10:14;1.98;;;0.90;;
23496;SDS011;11925;48.122;11.560;2023-02-25T14:13:02;3.20;;;1.70;;
23496;SDS011;11925;48.122;11.560;2023-02-25T14:15:50;4.75;;;1.38;;
23496;SDS011;11925;48.122;11.560;2023-02-25T14:18:31;3.17;;;0.82;;
23496;SDS011;11925;48.122;11.560;2023-02-25T14:24:11;2.53;;;0.70;;
23496;SDS011;11925;48.122;11.560;2023-02-25T14:26:47;2.28;;;0.77;;
23496;SDS011;11925;48.122;11.560;2023-02-25T14:29:24;2.88;;;0.80;;
23496;SDS011;11925;48.122;11.560;2023-02-25T14:32:05;4.53;;;0.90;;
23496;SDS011;11925;48.122;11.560;2023-02-25T14:34:52;2.75;;;0.80;;
23496;SDS011;11925;48.122;11.560;2023-02-25T14:37:41;4.13;;;0.80;;
23496;SDS011;11925;48.122;11.560;2023-02-25T14:40:24;2.53;;;0.50;;
23496;SDS011;11925;48.122;11.560;2023-02-25T14:43:02;3.10;;;0.70;;
23496;SDS011;11925;48.122;11.560;2023-02-25T14:45:45;3.72;;;0.90;;
23496;SDS011;11925;48.122;11.560;2023-02-25T14:48:19;4.30;;;0.90;;
23496;SDS011;11925;48.122;11.560;2023-02-25T14:50:56;3.22;;;0.98;;
23496;SDS011;11925;48.122;11.560;2023-02-25T14:53:46;2.47;;;0.90;;
23496;SDS011;11925;48.122;11.560;2023-02-25T15:02:38;1.48;;;0.88;;
23496;SDS011;11925;48.122;11.560;2023-02-25T15:05:27;3.67;;;0.95;;
23496;SDS011;11925;48.122;11.560;2023-02-25T15:08:15;2.17;;;0.90;;
23496;SDS011;11925;48.122;11.560;2023-02-25T15:14:14;1.92;;;0.95;;
23496;SDS011;11925;48.122;11.560;2023-02-25T15:17:11;2.70;;;1.02;;
23496;SDS011;11925;48.122;11.560;2023-02-25T15:19:58;3.03;;;1.02;;
23496;SDS011;11925;48.122;11.560;2023-02-25T15:22:51;4.57;;;1.20;;
23496;SDS011;11925;48.122;11.560;2023-02-25T15:25:34;3.90;;;1.30;;
23496;SDS011;11925;48.122;11.560;2023-02-25T15:31:07;2.90;;;1.15;;
23496;SDS011;11925;48.122;11.560;2023-02-25T15:37:10;2.05;;;0.90;;
23496;SDS011;11925;48.122;11.560;2023-02-25T15:39:47;2.72;;;0.70;;
23496;SDS011;11925;48.122;11.560;2023-02-25T15:42:39;2.28;;;0.77;;
23496;SDS011;11925;48.122;11.560;2023-02-25T15:45:32;2.97;;;0.70;;
23496;SDS011;11925;48.122;11.560;2023-02-25T15:50:59;2.33;;;0.98;;
23496;SDS011;11925;48.122;11.560;2023-02-25T15:53:38;1.58;;;0.68;;
23496;SDS011;11925;48.122;11.560;2023-02-25T15:56:25;1.83;;;0.52;;
23496;SDS011;11925;48.122;11.560;2023-02-25T15:58:57;1.45;;;0.60;;
23496;SDS011;11925;48.122;11.560;2023-02-25T16:01:27;1.30;;;0.60;;
23496;SDS011;11925;48.122;11.560;2023-02-25T16:04:11;2.45;;;0.80;;
23496;SDS011;11925;48.122;11.560;2023-02-25T16:06:55;3.30;;;0.80;;
23496;SDS011;11925;48.122;11.560;2023-02-25T16:09:27;1.98;;;0.65;;
23496;SDS011;11925;48.122;11.560;2023-02-25T16:11:55;1.00;;;0.50;;